<?xml version="1.0" encoding="UTF-8"?>
<gpx xmlns="http://www.topografix.com/GPX/1/1" xmlns:xsi="http://www.w3.org/2001/XMLSchema-instance" version="1.1" xsi:schemaLocation="http://www.topografix.com/GPX/1/1 http://www.topografix.com/GPX/1/1/gpx.xsd">
  <metadata>
    <name>North East Triathlon 2022 - Sprint Aquabike</name>
  </metadata>
  <trk>
    <name>North East Triathlon 2022 - Sprint Aquabike</name>
    <trkseg>
      <trkpt lat="39.593939" lon="-75.945712">
        <ele>2.391027</ele>
        <time>2024-08-18T08:16:00.000Z</time>
      </trkpt>
      <trkpt lat="39.593949" lon="-75.945702">
        <ele>2.391021</ele>
        <time>2024-08-18T08:16:00.000Z</time>
      </trkpt>
      <trkpt lat="39.593875" lon="-75.944846">
        <ele>2.39103</ele>
        <time>2024-08-18T08:16:07.000Z</time>
      </trkpt>
      <trkpt lat="39.593811" lon="-75.943913">
        <ele>3.006585</ele>
        <time>2024-08-18T08:16:15.000Z</time>
      </trkpt>
      <trkpt lat="39.593647" lon="-75.941501">
        <ele>5.956703</ele>
        <time>2024-08-18T08:16:36.000Z</time>
      </trkpt>
      <trkpt lat="39.593521" lon="-75.941511">
        <ele>6.247138</ele>
        <time>2024-08-18T08:16:37.000Z</time>
      </trkpt>
      <trkpt lat="39.592928" lon="-75.941585">
        <ele>7.64276</ele>
        <time>2024-08-18T08:16:44.000Z</time>
      </trkpt>
      <trkpt lat="39.592813" lon="-75.941596">
        <ele>7.871684</ele>
        <time>2024-08-18T08:16:45.000Z</time>
      </trkpt>
      <trkpt lat="39.592329" lon="-75.941661">
        <ele>9.229346</ele>
        <time>2024-08-18T08:16:50.000Z</time>
      </trkpt>
      <trkpt lat="39.592222" lon="-75.941695">
        <ele>9.767831</ele>
        <time>2024-08-18T08:16:51.000Z</time>
      </trkpt>
      <trkpt lat="39.5922" lon="-75.94141">
        <ele>10.881542</ele>
        <time>2024-08-18T08:16:53.000Z</time>
      </trkpt>
      <trkpt lat="39.592162" lon="-75.94113">
        <ele>12.00144</ele>
        <time>2024-08-18T08:16:55.000Z</time>
      </trkpt>
      <trkpt lat="39.592081" lon="-75.940585">
        <ele>14.142481</ele>
        <time>2024-08-18T08:17:00.000Z</time>
      </trkpt>
      <trkpt lat="39.592057" lon="-75.940329">
        <ele>15.184346</ele>
        <time>2024-08-18T08:17:02.000Z</time>
      </trkpt>
      <trkpt lat="39.591892" lon="-75.939141">
        <ele>19.711514</ele>
        <time>2024-08-18T08:17:12.000Z</time>
      </trkpt>
      <trkpt lat="39.591834" lon="-75.938602">
        <ele>21.762189</ele>
        <time>2024-08-18T08:17:17.000Z</time>
      </trkpt>
      <trkpt lat="39.591777" lon="-75.938265">
        <ele>23.08319</ele>
        <time>2024-08-18T08:17:20.000Z</time>
      </trkpt>
      <trkpt lat="39.591356" lon="-75.937403">
        <ele>26.682648</ele>
        <time>2024-08-18T08:17:29.000Z</time>
      </trkpt>
      <trkpt lat="39.591016" lon="-75.93689">
        <ele>27.700733</ele>
        <time>2024-08-18T08:17:35.000Z</time>
      </trkpt>
      <trkpt lat="39.589927" lon="-75.935672">
        <ele>30.076619</ele>
        <time>2024-08-18T08:17:51.000Z</time>
      </trkpt>
      <trkpt lat="39.589802" lon="-75.935536">
        <ele>30.061456</ele>
        <time>2024-08-18T08:17:53.000Z</time>
      </trkpt>
      <trkpt lat="39.589433" lon="-75.935143">
        <ele>30.013531</ele>
        <time>2024-08-18T08:17:58.000Z</time>
      </trkpt>
      <trkpt lat="39.58933" lon="-75.935026">
        <ele>30.000072</ele>
        <time>2024-08-18T08:18:00.000Z</time>
      </trkpt>
      <trkpt lat="39.588893" lon="-75.934558">
        <ele>29.944759</ele>
        <time>2024-08-18T08:18:06.000Z</time>
      </trkpt>
      <trkpt lat="39.588624" lon="-75.934303">
        <ele>29.741647</ele>
        <time>2024-08-18T08:18:10.000Z</time>
      </trkpt>
      <trkpt lat="39.588434" lon="-75.934147">
        <ele>29.361927</ele>
        <time>2024-08-18T08:18:13.000Z</time>
      </trkpt>
      <trkpt lat="39.588367" lon="-75.934089">
        <ele>29.221369</ele>
        <time>2024-08-18T08:18:14.000Z</time>
      </trkpt>
      <trkpt lat="39.588097" lon="-75.933901">
        <ele>28.681657</ele>
        <time>2024-08-18T08:18:17.000Z</time>
      </trkpt>
      <trkpt lat="39.58759" lon="-75.933488">
        <ele>27.627027</ele>
        <time>2024-08-18T08:18:24.000Z</time>
      </trkpt>
      <trkpt lat="39.587249" lon="-75.933243">
        <ele>26.962387</ele>
        <time>2024-08-18T08:18:28.000Z</time>
      </trkpt>
      <trkpt lat="39.585693" lon="-75.932012">
        <ele>25.589078</ele>
        <time>2024-08-18T08:18:48.000Z</time>
      </trkpt>
      <trkpt lat="39.585209" lon="-75.931512">
        <ele>26.364443</ele>
        <time>2024-08-18T08:18:55.000Z</time>
      </trkpt>
      <trkpt lat="39.584985" lon="-75.931197">
        <ele>26.874407</ele>
        <time>2024-08-18T08:18:59.000Z</time>
      </trkpt>
      <trkpt lat="39.584554" lon="-75.930436">
        <ele>27.998821</ele>
        <time>2024-08-18T08:19:07.000Z</time>
      </trkpt>
      <trkpt lat="39.583677" lon="-75.928636">
        <ele>32.316753</ele>
        <time>2024-08-18T08:19:25.000Z</time>
      </trkpt>
      <trkpt lat="39.583239" lon="-75.927474">
        <ele>34.787033</ele>
        <time>2024-08-18T08:19:36.000Z</time>
      </trkpt>
      <trkpt lat="39.58257" lon="-75.925956">
        <ele>37.664814</ele>
        <time>2024-08-18T08:19:51.000Z</time>
      </trkpt>
      <trkpt lat="39.582414" lon="-75.925697">
        <ele>37.995628</ele>
        <time>2024-08-18T08:19:54.000Z</time>
      </trkpt>
      <trkpt lat="39.581724" lon="-75.92483">
        <ele>39.284089</ele>
        <time>2024-08-18T08:20:05.000Z</time>
      </trkpt>
      <trkpt lat="39.580874" lon="-75.923831">
        <ele>41.27584</ele>
        <time>2024-08-18T08:20:18.000Z</time>
      </trkpt>
      <trkpt lat="39.57995" lon="-75.922843">
        <ele>43.84642</ele>
        <time>2024-08-18T08:20:31.000Z</time>
      </trkpt>
      <trkpt lat="39.578503" lon="-75.919985">
        <ele>52.136712</ele>
        <time>2024-08-18T08:21:00.000Z</time>
      </trkpt>
      <trkpt lat="39.577991" lon="-75.918814">
        <ele>54.357901</ele>
        <time>2024-08-18T08:21:12.000Z</time>
      </trkpt>
      <trkpt lat="39.577583" lon="-75.918">
        <ele>54.438636</ele>
        <time>2024-08-18T08:21:20.000Z</time>
      </trkpt>
      <trkpt lat="39.57714" lon="-75.916915">
        <ele>54.441096</ele>
        <time>2024-08-18T08:21:31.000Z</time>
      </trkpt>
      <trkpt lat="39.577058" lon="-75.916665">
        <ele>54.290883</ele>
        <time>2024-08-18T08:21:33.000Z</time>
      </trkpt>
      <trkpt lat="39.576599" lon="-75.915181">
        <ele>53.411932</ele>
        <time>2024-08-18T08:21:47.000Z</time>
      </trkpt>
      <trkpt lat="39.57619" lon="-75.914226">
        <ele>53.687686</ele>
        <time>2024-08-18T08:21:56.000Z</time>
      </trkpt>
      <trkpt lat="39.575918" lon="-75.913872">
        <ele>53.971972</ele>
        <time>2024-08-18T08:22:00.000Z</time>
      </trkpt>
      <trkpt lat="39.575106" lon="-75.913366">
        <ele>54.65615</ele>
        <time>2024-08-18T08:22:10.000Z</time>
      </trkpt>
      <trkpt lat="39.574674" lon="-75.91319">
        <ele>55.086757</ele>
        <time>2024-08-18T08:22:15.000Z</time>
      </trkpt>
      <trkpt lat="39.574203" lon="-75.9131">
        <ele>55.541874</ele>
        <time>2024-08-18T08:22:20.000Z</time>
      </trkpt>
      <trkpt lat="39.57375" lon="-75.913152">
        <ele>55.993832</ele>
        <time>2024-08-18T08:22:25.000Z</time>
      </trkpt>
      <trkpt lat="39.573317" lon="-75.91329">
        <ele>55.944868</ele>
        <time>2024-08-18T08:22:30.000Z</time>
      </trkpt>
      <trkpt lat="39.572651" lon="-75.913753">
        <ele>53.851381</ele>
        <time>2024-08-18T08:22:38.000Z</time>
      </trkpt>
      <trkpt lat="39.571283" lon="-75.914326">
        <ele>48.885442</ele>
        <time>2024-08-18T08:22:54.000Z</time>
      </trkpt>
      <trkpt lat="39.570873" lon="-75.914455">
        <ele>46.964029</ele>
        <time>2024-08-18T08:22:59.000Z</time>
      </trkpt>
      <trkpt lat="39.570292" lon="-75.914433">
        <ele>44.389307</ele>
        <time>2024-08-18T08:23:05.000Z</time>
      </trkpt>
      <trkpt lat="39.570245" lon="-75.914437">
        <ele>44.139692</ele>
        <time>2024-08-18T08:23:06.000Z</time>
      </trkpt>
      <trkpt lat="39.568893" lon="-75.914279">
        <ele>38.689245</ele>
        <time>2024-08-18T08:23:21.000Z</time>
      </trkpt>
      <trkpt lat="39.567591" lon="-75.91417">
        <ele>34.434459</ele>
        <time>2024-08-18T08:23:36.000Z</time>
      </trkpt>
      <trkpt lat="39.567312" lon="-75.914193">
        <ele>33.721019</ele>
        <time>2024-08-18T08:23:39.000Z</time>
      </trkpt>
      <trkpt lat="39.566448" lon="-75.914599">
        <ele>31.505042</ele>
        <time>2024-08-18T08:23:49.000Z</time>
      </trkpt>
      <trkpt lat="39.566317" lon="-75.91465">
        <ele>31.622871</ele>
        <time>2024-08-18T08:23:51.000Z</time>
      </trkpt>
      <trkpt lat="39.566008" lon="-75.914664">
        <ele>31.879258</ele>
        <time>2024-08-18T08:23:54.000Z</time>
      </trkpt>
      <trkpt lat="39.565619" lon="-75.914682">
        <ele>32.188034</ele>
        <time>2024-08-18T08:23:58.000Z</time>
      </trkpt>
      <trkpt lat="39.565287" lon="-75.914656">
        <ele>32.457923</ele>
        <time>2024-08-18T08:24:02.000Z</time>
      </trkpt>
      <trkpt lat="39.56405" lon="-75.914564">
        <ele>34.905811</ele>
        <time>2024-08-18T08:24:16.000Z</time>
      </trkpt>
      <trkpt lat="39.56349" lon="-75.914504">
        <ele>36.616717</ele>
        <time>2024-08-18T08:24:22.000Z</time>
      </trkpt>
      <trkpt lat="39.56271" lon="-75.914282">
        <ele>38.702924</ele>
        <time>2024-08-18T08:24:31.000Z</time>
      </trkpt>
      <trkpt lat="39.562515" lon="-75.914189">
        <ele>39.003033</ele>
        <time>2024-08-18T08:24:33.000Z</time>
      </trkpt>
      <trkpt lat="39.562338" lon="-75.914025">
        <ele>39.344287</ele>
        <time>2024-08-18T08:24:35.000Z</time>
      </trkpt>
      <trkpt lat="39.562111" lon="-75.913619">
        <ele>39.926162</ele>
        <time>2024-08-18T08:24:39.000Z</time>
      </trkpt>
      <trkpt lat="39.562049" lon="-75.91326">
        <ele>40.352175</ele>
        <time>2024-08-18T08:24:42.000Z</time>
      </trkpt>
      <trkpt lat="39.562059" lon="-75.912017">
        <ele>41.072329</ele>
        <time>2024-08-18T08:24:53.000Z</time>
      </trkpt>
      <trkpt lat="39.562145" lon="-75.910734">
        <ele>41.027371</ele>
        <time>2024-08-18T08:25:04.000Z</time>
      </trkpt>
      <trkpt lat="39.562122" lon="-75.910529">
        <ele>41.020465</ele>
        <time>2024-08-18T08:25:06.000Z</time>
      </trkpt>
      <trkpt lat="39.562088" lon="-75.91016">
        <ele>41.004545</ele>
        <time>2024-08-18T08:25:09.000Z</time>
      </trkpt>
      <trkpt lat="39.561976" lon="-75.908861">
        <ele>40.922736</ele>
        <time>2024-08-18T08:25:20.000Z</time>
      </trkpt>
      <trkpt lat="39.561765" lon="-75.908131">
        <ele>40.874012</ele>
        <time>2024-08-18T08:25:27.000Z</time>
      </trkpt>
      <trkpt lat="39.561518" lon="-75.907409">
        <ele>39.219674</ele>
        <time>2024-08-18T08:25:34.000Z</time>
      </trkpt>
      <trkpt lat="39.561524" lon="-75.906892">
        <ele>37.966834</ele>
        <time>2024-08-18T08:25:38.000Z</time>
      </trkpt>
      <trkpt lat="39.561652" lon="-75.906583">
        <ele>37.115814</ele>
        <time>2024-08-18T08:25:41.000Z</time>
      </trkpt>
      <trkpt lat="39.562395" lon="-75.9055">
        <ele>33.613269</ele>
        <time>2024-08-18T08:25:53.000Z</time>
      </trkpt>
      <trkpt lat="39.563023" lon="-75.904312">
        <ele>30.242485</ele>
        <time>2024-08-18T08:26:05.000Z</time>
      </trkpt>
      <trkpt lat="39.56306" lon="-75.903714">
        <ele>29.413159</ele>
        <time>2024-08-18T08:26:10.000Z</time>
      </trkpt>
      <trkpt lat="39.562902" lon="-75.901417">
        <ele>28.232761</ele>
        <time>2024-08-18T08:26:30.000Z</time>
      </trkpt>
      <trkpt lat="39.562807" lon="-75.901016">
        <ele>28.464053</ele>
        <time>2024-08-18T08:26:34.000Z</time>
      </trkpt>
      <trkpt lat="39.562684" lon="-75.900742">
        <ele>28.638276</ele>
        <time>2024-08-18T08:26:37.000Z</time>
      </trkpt>
      <trkpt lat="39.561961" lon="-75.899891">
        <ele>29.345206</ele>
        <time>2024-08-18T08:26:48.000Z</time>
      </trkpt>
      <trkpt lat="39.560818" lon="-75.897958">
        <ele>34.86987</ele>
        <time>2024-08-18T08:27:09.000Z</time>
      </trkpt>
      <trkpt lat="39.560378" lon="-75.897128">
        <ele>38.364418</ele>
        <time>2024-08-18T08:27:18.000Z</time>
      </trkpt>
      <trkpt lat="39.558959" lon="-75.894035">
        <ele>51.367134</ele>
        <time>2024-08-18T08:27:49.000Z</time>
      </trkpt>
      <trkpt lat="39.558736" lon="-75.894267">
        <ele>52.110683</ele>
        <time>2024-08-18T08:27:52.000Z</time>
      </trkpt>
      <trkpt lat="39.55834" lon="-75.894714">
        <ele>53.464454</ele>
        <time>2024-08-18T08:27:58.000Z</time>
      </trkpt>
      <trkpt lat="39.557919" lon="-75.895498">
        <ele>55.420205</ele>
        <time>2024-08-18T08:28:06.000Z</time>
      </trkpt>
      <trkpt lat="39.557567" lon="-75.896128">
        <ele>55.725852</ele>
        <time>2024-08-18T08:28:13.000Z</time>
      </trkpt>
      <trkpt lat="39.557551" lon="-75.896155">
        <ele>55.717469</ele>
        <time>2024-08-18T08:28:13.000Z</time>
      </trkpt>
      <trkpt lat="39.557404" lon="-75.896355">
        <ele>55.574057</ele>
        <time>2024-08-18T08:28:15.000Z</time>
      </trkpt>
      <trkpt lat="39.556976" lon="-75.896947">
        <ele>55.138414</ele>
        <time>2024-08-18T08:28:22.000Z</time>
      </trkpt>
      <trkpt lat="39.556882" lon="-75.897084">
        <ele>55.03854</ele>
        <time>2024-08-18T08:28:24.000Z</time>
      </trkpt>
      <trkpt lat="39.556663" lon="-75.897442">
        <ele>54.80111</ele>
        <time>2024-08-18T08:28:28.000Z</time>
      </trkpt>
      <trkpt lat="39.55589" lon="-75.898517">
        <ele>56.42261</ele>
        <time>2024-08-18T08:28:41.000Z</time>
      </trkpt>
      <trkpt lat="39.555821" lon="-75.898621">
        <ele>56.611326</ele>
        <time>2024-08-18T08:28:42.000Z</time>
      </trkpt>
      <trkpt lat="39.555372" lon="-75.899139">
        <ele>57.530158</ele>
        <time>2024-08-18T08:28:49.000Z</time>
      </trkpt>
      <trkpt lat="39.554648" lon="-75.899462">
        <ele>60.342298</ele>
        <time>2024-08-18T08:28:58.000Z</time>
      </trkpt>
      <trkpt lat="39.554427" lon="-75.899682">
        <ele>61.413227</ele>
        <time>2024-08-18T08:29:01.000Z</time>
      </trkpt>
      <trkpt lat="39.554295" lon="-75.900057">
        <ele>62.596382</ele>
        <time>2024-08-18T08:29:05.000Z</time>
      </trkpt>
      <trkpt lat="39.554339" lon="-75.900503">
        <ele>63.878569</ele>
        <time>2024-08-18T08:29:09.000Z</time>
      </trkpt>
      <trkpt lat="39.554313" lon="-75.900677">
        <ele>64.369775</ele>
        <time>2024-08-18T08:29:11.000Z</time>
      </trkpt>
      <trkpt lat="39.554222" lon="-75.900867">
        <ele>64.911888</ele>
        <time>2024-08-18T08:29:13.000Z</time>
      </trkpt>
      <trkpt lat="39.553427" lon="-75.902048">
        <ele>68.670869</ele>
        <time>2024-08-18T08:29:26.000Z</time>
      </trkpt>
      <trkpt lat="39.553381" lon="-75.902103">
        <ele>68.852645</ele>
        <time>2024-08-18T08:29:27.000Z</time>
      </trkpt>
      <trkpt lat="39.553041" lon="-75.902589">
        <ele>70.24429</ele>
        <time>2024-08-18T08:29:33.000Z</time>
      </trkpt>
      <trkpt lat="39.553015" lon="-75.902636">
        <ele>70.307835</ele>
        <time>2024-08-18T08:29:33.000Z</time>
      </trkpt>
      <trkpt lat="39.552946" lon="-75.902724">
        <ele>70.512396</ele>
        <time>2024-08-18T08:29:34.000Z</time>
      </trkpt>
      <trkpt lat="39.552552" lon="-75.903343">
        <ele>71.691333</ele>
        <time>2024-08-18T08:29:41.000Z</time>
      </trkpt>
      <trkpt lat="39.552401" lon="-75.903598">
        <ele>72.170156</ele>
        <time>2024-08-18T08:29:44.000Z</time>
      </trkpt>
      <trkpt lat="39.552313" lon="-75.903791">
        <ele>72.52132</ele>
        <time>2024-08-18T08:29:46.000Z</time>
      </trkpt>
      <trkpt lat="39.552275" lon="-75.903884">
        <ele>72.676006</ele>
        <time>2024-08-18T08:29:47.000Z</time>
      </trkpt>
      <trkpt lat="39.552226" lon="-75.904086">
        <ele>72.988172</ele>
        <time>2024-08-18T08:29:49.000Z</time>
      </trkpt>
      <trkpt lat="39.551979" lon="-75.905871">
        <ele>72.436006</ele>
        <time>2024-08-18T08:30:05.000Z</time>
      </trkpt>
      <trkpt lat="39.551822" lon="-75.906614">
        <ele>71.996763</ele>
        <time>2024-08-18T08:30:12.000Z</time>
      </trkpt>
      <trkpt lat="39.551617" lon="-75.907031">
        <ele>72.045788</ele>
        <time>2024-08-18T08:30:16.000Z</time>
      </trkpt>
      <trkpt lat="39.551383" lon="-75.90721">
        <ele>72.083814</ele>
        <time>2024-08-18T08:30:19.000Z</time>
      </trkpt>
      <trkpt lat="39.550571" lon="-75.907588">
        <ele>72.195703</ele>
        <time>2024-08-18T08:30:29.000Z</time>
      </trkpt>
      <trkpt lat="39.550181" lon="-75.907773">
        <ele>72.068772</ele>
        <time>2024-08-18T08:30:34.000Z</time>
      </trkpt>
      <trkpt lat="39.550141" lon="-75.907794">
        <ele>72.025799</ele>
        <time>2024-08-18T08:30:34.000Z</time>
      </trkpt>
      <trkpt lat="39.549616" lon="-75.908023">
        <ele>71.366223</ele>
        <time>2024-08-18T08:30:40.000Z</time>
      </trkpt>
      <trkpt lat="39.549453" lon="-75.908155">
        <ele>71.132292</ele>
        <time>2024-08-18T08:30:42.000Z</time>
      </trkpt>
      <trkpt lat="39.548993" lon="-75.908844">
        <ele>70.31553</ele>
        <time>2024-08-18T08:30:50.000Z</time>
      </trkpt>
      <trkpt lat="39.548621" lon="-75.909446">
        <ele>68.304321</ele>
        <time>2024-08-18T08:30:57.000Z</time>
      </trkpt>
      <trkpt lat="39.548065" lon="-75.910407">
        <ele>64.429331</ele>
        <time>2024-08-18T08:31:07.000Z</time>
      </trkpt>
      <trkpt lat="39.547801" lon="-75.910685">
        <ele>62.975246</ele>
        <time>2024-08-18T08:31:11.000Z</time>
      </trkpt>
      <trkpt lat="39.547234" lon="-75.911116">
        <ele>61.153466</ele>
        <time>2024-08-18T08:31:18.000Z</time>
      </trkpt>
      <trkpt lat="39.546415" lon="-75.911808">
        <ele>58.680701</ele>
        <time>2024-08-18T08:31:29.000Z</time>
      </trkpt>
      <trkpt lat="39.54484" lon="-75.913168">
        <ele>54.567275</ele>
        <time>2024-08-18T08:31:50.000Z</time>
      </trkpt>
      <trkpt lat="39.544047" lon="-75.914074">
        <ele>49.74239</ele>
        <time>2024-08-18T08:32:02.000Z</time>
      </trkpt>
      <trkpt lat="39.54263" lon="-75.91563">
        <ele>40.757992</ele>
        <time>2024-08-18T08:32:23.000Z</time>
      </trkpt>
      <trkpt lat="39.541835" lon="-75.916537">
        <ele>37.187139</ele>
        <time>2024-08-18T08:32:35.000Z</time>
      </trkpt>
      <trkpt lat="39.541437" lon="-75.917038">
        <ele>38.287157</ele>
        <time>2024-08-18T08:32:41.000Z</time>
      </trkpt>
      <trkpt lat="39.541203" lon="-75.917352">
        <ele>38.911509</ele>
        <time>2024-08-18T08:32:45.000Z</time>
      </trkpt>
      <trkpt lat="39.540845" lon="-75.917796">
        <ele>39.867161</ele>
        <time>2024-08-18T08:32:51.000Z</time>
      </trkpt>
      <trkpt lat="39.539871" lon="-75.918924">
        <ele>46.546069</ele>
        <time>2024-08-18T08:33:06.000Z</time>
      </trkpt>
      <trkpt lat="39.540497" lon="-75.919505">
        <ele>50.830359</ele>
        <time>2024-08-18T08:33:15.000Z</time>
      </trkpt>
      <trkpt lat="39.540861" lon="-75.919932">
        <ele>52.388764</ele>
        <time>2024-08-18T08:33:20.000Z</time>
      </trkpt>
      <trkpt lat="39.540986" lon="-75.920222">
        <ele>53.2316</ele>
        <time>2024-08-18T08:33:23.000Z</time>
      </trkpt>
      <trkpt lat="39.541069" lon="-75.92072">
        <ele>54.47539</ele>
        <time>2024-08-18T08:33:27.000Z</time>
      </trkpt>
      <trkpt lat="39.541061" lon="-75.921044">
        <ele>55.284389</ele>
        <time>2024-08-18T08:33:30.000Z</time>
      </trkpt>
      <trkpt lat="39.540784" lon="-75.921745">
        <ele>56.078449</ele>
        <time>2024-08-18T08:33:37.000Z</time>
      </trkpt>
      <trkpt lat="39.54075" lon="-75.921957">
        <ele>55.877542</ele>
        <time>2024-08-18T08:33:39.000Z</time>
      </trkpt>
      <trkpt lat="39.540751" lon="-75.922086">
        <ele>55.751404</ele>
        <time>2024-08-18T08:33:40.000Z</time>
      </trkpt>
      <trkpt lat="39.540809" lon="-75.922388">
        <ele>55.464116</ele>
        <time>2024-08-18T08:33:43.000Z</time>
      </trkpt>
      <trkpt lat="39.540858" lon="-75.922537">
        <ele>55.31284</ele>
        <time>2024-08-18T08:33:44.000Z</time>
      </trkpt>
      <trkpt lat="39.540898" lon="-75.922691">
        <ele>55.152436</ele>
        <time>2024-08-18T08:33:45.000Z</time>
      </trkpt>
      <trkpt lat="39.540947" lon="-75.92289">
        <ele>54.954507</ele>
        <time>2024-08-18T08:33:47.000Z</time>
      </trkpt>
      <trkpt lat="39.541056" lon="-75.923275">
        <ele>54.58131</ele>
        <time>2024-08-18T08:33:51.000Z</time>
      </trkpt>
      <trkpt lat="39.54139" lon="-75.924522">
        <ele>50.997638</ele>
        <time>2024-08-18T08:34:02.000Z</time>
      </trkpt>
      <trkpt lat="39.541594" lon="-75.925238">
        <ele>48.342269</ele>
        <time>2024-08-18T08:34:09.000Z</time>
      </trkpt>
      <trkpt lat="39.541822" lon="-75.926071">
        <ele>45.3617</ele>
        <time>2024-08-18T08:34:17.000Z</time>
      </trkpt>
      <trkpt lat="39.541915" lon="-75.926416">
        <ele>44.168608</ele>
        <time>2024-08-18T08:34:20.000Z</time>
      </trkpt>
      <trkpt lat="39.541986" lon="-75.926667">
        <ele>43.298075</ele>
        <time>2024-08-18T08:34:22.000Z</time>
      </trkpt>
      <trkpt lat="39.542049" lon="-75.926992">
        <ele>42.241508</ele>
        <time>2024-08-18T08:34:25.000Z</time>
      </trkpt>
      <trkpt lat="39.542529" lon="-75.92801">
        <ele>38.55854</ele>
        <time>2024-08-18T08:34:35.000Z</time>
      </trkpt>
      <trkpt lat="39.542682" lon="-75.928305">
        <ele>38.296544</ele>
        <time>2024-08-18T08:34:38.000Z</time>
      </trkpt>
      <trkpt lat="39.542965" lon="-75.928805">
        <ele>37.85493</ele>
        <time>2024-08-18T08:34:43.000Z</time>
      </trkpt>
      <trkpt lat="39.543024" lon="-75.929166">
        <ele>37.588268</ele>
        <time>2024-08-18T08:34:46.000Z</time>
      </trkpt>
      <trkpt lat="39.543052" lon="-75.93009">
        <ele>36.934105</ele>
        <time>2024-08-18T08:34:54.000Z</time>
      </trkpt>
      <trkpt lat="39.543405" lon="-75.930915">
        <ele>37.275414</ele>
        <time>2024-08-18T08:35:02.000Z</time>
      </trkpt>
      <trkpt lat="39.54361" lon="-75.931279">
        <ele>37.436261</ele>
        <time>2024-08-18T08:35:06.000Z</time>
      </trkpt>
      <trkpt lat="39.544148" lon="-75.931859">
        <ele>37.774559</ele>
        <time>2024-08-18T08:35:14.000Z</time>
      </trkpt>
      <trkpt lat="39.544454" lon="-75.93229">
        <ele>37.907008</ele>
        <time>2024-08-18T08:35:19.000Z</time>
      </trkpt>
      <trkpt lat="39.544549" lon="-75.932531">
        <ele>37.971318</ele>
        <time>2024-08-18T08:35:21.000Z</time>
      </trkpt>
      <trkpt lat="39.544625" lon="-75.932933">
        <ele>38.059898</ele>
        <time>2024-08-18T08:35:25.000Z</time>
      </trkpt>
      <trkpt lat="39.54458" lon="-75.933213">
        <ele>38.121627</ele>
        <time>2024-08-18T08:35:27.000Z</time>
      </trkpt>
      <trkpt lat="39.544226" lon="-75.934338">
        <ele>38.556207</ele>
        <time>2024-08-18T08:35:37.000Z</time>
      </trkpt>
      <trkpt lat="39.544161" lon="-75.934795">
        <ele>38.840978</ele>
        <time>2024-08-18T08:35:41.000Z</time>
      </trkpt>
      <trkpt lat="39.543998" lon="-75.935308">
        <ele>39.179941</ele>
        <time>2024-08-18T08:35:46.000Z</time>
      </trkpt>
      <trkpt lat="39.543738" lon="-75.935784">
        <ele>39.546281</ele>
        <time>2024-08-18T08:35:51.000Z</time>
      </trkpt>
      <trkpt lat="39.543521" lon="-75.936224">
        <ele>39.979516</ele>
        <time>2024-08-18T08:35:55.000Z</time>
      </trkpt>
      <trkpt lat="39.543561" lon="-75.936534">
        <ele>40.400029</ele>
        <time>2024-08-18T08:35:58.000Z</time>
      </trkpt>
      <trkpt lat="39.544735" lon="-75.937945">
        <ele>43.133295</ele>
        <time>2024-08-18T08:36:16.000Z</time>
      </trkpt>
      <trkpt lat="39.544917" lon="-75.938151">
        <ele>43.646115</ele>
        <time>2024-08-18T08:36:19.000Z</time>
      </trkpt>
      <trkpt lat="39.545226" lon="-75.938516">
        <ele>44.500082</ele>
        <time>2024-08-18T08:36:24.000Z</time>
      </trkpt>
      <trkpt lat="39.545541" lon="-75.938886">
        <ele>45.360715</ele>
        <time>2024-08-18T08:36:29.000Z</time>
      </trkpt>
      <trkpt lat="39.545845" lon="-75.939306">
        <ele>46.278198</ele>
        <time>2024-08-18T08:36:34.000Z</time>
      </trkpt>
      <trkpt lat="39.545988" lon="-75.939618">
        <ele>46.828699</ele>
        <time>2024-08-18T08:36:37.000Z</time>
      </trkpt>
      <trkpt lat="39.546117" lon="-75.940122">
        <ele>47.622981</ele>
        <time>2024-08-18T08:36:42.000Z</time>
      </trkpt>
      <trkpt lat="39.546138" lon="-75.940302">
        <ele>47.872695</ele>
        <time>2024-08-18T08:36:44.000Z</time>
      </trkpt>
      <trkpt lat="39.546145" lon="-75.94057">
        <ele>48.271036</ele>
        <time>2024-08-18T08:36:46.000Z</time>
      </trkpt>
      <trkpt lat="39.546087" lon="-75.940931">
        <ele>48.817634</ele>
        <time>2024-08-18T08:36:49.000Z</time>
      </trkpt>
      <trkpt lat="39.545878" lon="-75.941728">
        <ele>49.971775</ele>
        <time>2024-08-18T08:36:56.000Z</time>
      </trkpt>
      <trkpt lat="39.545747" lon="-75.942295">
        <ele>50.273737</ele>
        <time>2024-08-18T08:37:01.000Z</time>
      </trkpt>
      <trkpt lat="39.545736" lon="-75.942448">
        <ele>50.348221</ele>
        <time>2024-08-18T08:37:02.000Z</time>
      </trkpt>
      <trkpt lat="39.545761" lon="-75.942745">
        <ele>50.505532</ele>
        <time>2024-08-18T08:37:05.000Z</time>
      </trkpt>
      <trkpt lat="39.545845" lon="-75.942947">
        <ele>50.622064</ele>
        <time>2024-08-18T08:37:07.000Z</time>
      </trkpt>
      <trkpt lat="39.546102" lon="-75.943346">
        <ele>50.889099</ele>
        <time>2024-08-18T08:37:11.000Z</time>
      </trkpt>
      <trkpt lat="39.546385" lon="-75.9436">
        <ele>51.061459</ele>
        <time>2024-08-18T08:37:15.000Z</time>
      </trkpt>
      <trkpt lat="39.546821" lon="-75.944029">
        <ele>49.937158</ele>
        <time>2024-08-18T08:37:21.000Z</time>
      </trkpt>
      <trkpt lat="39.547278" lon="-75.944557">
        <ele>48.703682</ele>
        <time>2024-08-18T08:37:28.000Z</time>
      </trkpt>
      <trkpt lat="39.547496" lon="-75.944774">
        <ele>48.170268</ele>
        <time>2024-08-18T08:37:31.000Z</time>
      </trkpt>
      <trkpt lat="39.547847" lon="-75.944921">
        <ele>47.386335</ele>
        <time>2024-08-18T08:37:35.000Z</time>
      </trkpt>
      <trkpt lat="39.548028" lon="-75.945047">
        <ele>46.488177</ele>
        <time>2024-08-18T08:37:37.000Z</time>
      </trkpt>
      <trkpt lat="39.548656" lon="-75.945858">
        <ele>42.729717</ele>
        <time>2024-08-18T08:37:47.000Z</time>
      </trkpt>
      <trkpt lat="39.548983" lon="-75.946326">
        <ele>40.6863</ele>
        <time>2024-08-18T08:37:52.000Z</time>
      </trkpt>
      <trkpt lat="39.549016" lon="-75.946763">
        <ele>39.480453</ele>
        <time>2024-08-18T08:37:56.000Z</time>
      </trkpt>
      <trkpt lat="39.54885" lon="-75.948163">
        <ele>36.529974</ele>
        <time>2024-08-18T08:38:08.000Z</time>
      </trkpt>
      <trkpt lat="39.550085" lon="-75.948199">
        <ele>34.873563</ele>
        <time>2024-08-18T08:38:22.000Z</time>
      </trkpt>
      <trkpt lat="39.551499" lon="-75.948396">
        <ele>34.569663</ele>
        <time>2024-08-18T08:38:38.000Z</time>
      </trkpt>
      <trkpt lat="39.551723" lon="-75.948452">
        <ele>34.468743</ele>
        <time>2024-08-18T08:38:41.000Z</time>
      </trkpt>
      <trkpt lat="39.55279" lon="-75.948716">
        <ele>33.99582</ele>
        <time>2024-08-18T08:38:53.000Z</time>
      </trkpt>
      <trkpt lat="39.553478" lon="-75.948963">
        <ele>32.469863</ele>
        <time>2024-08-18T08:39:01.000Z</time>
      </trkpt>
      <trkpt lat="39.554504" lon="-75.949336">
        <ele>29.447002</ele>
        <time>2024-08-18T08:39:13.000Z</time>
      </trkpt>
      <trkpt lat="39.554631" lon="-75.949374">
        <ele>29.123986</ele>
        <time>2024-08-18T08:39:14.000Z</time>
      </trkpt>
      <trkpt lat="39.556041" lon="-75.949849">
        <ele>21.723137</ele>
        <time>2024-08-18T08:39:30.000Z</time>
      </trkpt>
      <trkpt lat="39.557248" lon="-75.950066">
        <ele>16.024438</ele>
        <time>2024-08-18T08:39:44.000Z</time>
      </trkpt>
      <trkpt lat="39.557916" lon="-75.950096">
        <ele>13.117926</ele>
        <time>2024-08-18T08:39:51.000Z</time>
      </trkpt>
      <trkpt lat="39.558701" lon="-75.950016">
        <ele>11.219754</ele>
        <time>2024-08-18T08:40:00.000Z</time>
      </trkpt>
      <trkpt lat="39.559014" lon="-75.949954">
        <ele>10.92121</ele>
        <time>2024-08-18T08:40:04.000Z</time>
      </trkpt>
      <trkpt lat="39.559592" lon="-75.949798">
        <ele>10.377284</ele>
        <time>2024-08-18T08:40:11.000Z</time>
      </trkpt>
      <trkpt lat="39.559856" lon="-75.949719">
        <ele>10.121725</ele>
        <time>2024-08-18T08:40:14.000Z</time>
      </trkpt>
      <trkpt lat="39.560189" lon="-75.949604">
        <ele>9.997557</ele>
        <time>2024-08-18T08:40:18.000Z</time>
      </trkpt>
      <trkpt lat="39.560512" lon="-75.94947">
        <ele>10.121797</ele>
        <time>2024-08-18T08:40:22.000Z</time>
      </trkpt>
      <trkpt lat="39.560945" lon="-75.949324">
        <ele>10.277429</ele>
        <time>2024-08-18T08:40:27.000Z</time>
      </trkpt>
      <trkpt lat="39.560969" lon="-75.949309">
        <ele>10.289198</ele>
        <time>2024-08-18T08:40:27.000Z</time>
      </trkpt>
      <trkpt lat="39.561205" lon="-75.949238">
        <ele>10.377101</ele>
        <time>2024-08-18T08:40:30.000Z</time>
      </trkpt>
      <trkpt lat="39.561359" lon="-75.94918">
        <ele>10.432495</ele>
        <time>2024-08-18T08:40:32.000Z</time>
      </trkpt>
      <trkpt lat="39.561656" lon="-75.94908">
        <ele>10.540154</ele>
        <time>2024-08-18T08:40:35.000Z</time>
      </trkpt>
      <trkpt lat="39.562537" lon="-75.948772">
        <ele>11.840491</ele>
        <time>2024-08-18T08:40:45.000Z</time>
      </trkpt>
      <trkpt lat="39.563177" lon="-75.948536">
        <ele>12.864619</ele>
        <time>2024-08-18T08:40:52.000Z</time>
      </trkpt>
      <trkpt lat="39.563373" lon="-75.948461">
        <ele>13.189486</ele>
        <time>2024-08-18T08:40:54.000Z</time>
      </trkpt>
      <trkpt lat="39.563491" lon="-75.948435">
        <ele>13.381064</ele>
        <time>2024-08-18T08:40:55.000Z</time>
      </trkpt>
      <trkpt lat="39.566223" lon="-75.947466">
        <ele>21.660606</ele>
        <time>2024-08-18T08:41:27.000Z</time>
      </trkpt>
      <trkpt lat="39.566582" lon="-75.947325">
        <ele>22.577988</ele>
        <time>2024-08-18T08:41:31.000Z</time>
      </trkpt>
      <trkpt lat="39.56666" lon="-75.947302">
        <ele>22.779336</ele>
        <time>2024-08-18T08:41:32.000Z</time>
      </trkpt>
      <trkpt lat="39.566785" lon="-75.947256">
        <ele>23.118311</ele>
        <time>2024-08-18T08:41:33.000Z</time>
      </trkpt>
      <trkpt lat="39.569111" lon="-75.946449">
        <ele>22.458159</ele>
        <time>2024-08-18T08:42:00.000Z</time>
      </trkpt>
      <trkpt lat="39.570594" lon="-75.945914">
        <ele>18.721871</ele>
        <time>2024-08-18T08:42:17.000Z</time>
      </trkpt>
      <trkpt lat="39.571838" lon="-75.945473">
        <ele>15.744064</ele>
        <time>2024-08-18T08:42:31.000Z</time>
      </trkpt>
      <trkpt lat="39.572066" lon="-75.945393">
        <ele>15.203221</ele>
        <time>2024-08-18T08:42:34.000Z</time>
      </trkpt>
      <trkpt lat="39.572469" lon="-75.945258">
        <ele>14.335125</ele>
        <time>2024-08-18T08:42:39.000Z</time>
      </trkpt>
      <trkpt lat="39.573385" lon="-75.944937">
        <ele>12.49019</ele>
        <time>2024-08-18T08:42:50.000Z</time>
      </trkpt>
      <trkpt lat="39.5749" lon="-75.944432">
        <ele>10.668969</ele>
        <time>2024-08-18T08:43:07.000Z</time>
      </trkpt>
      <trkpt lat="39.576703" lon="-75.943941">
        <ele>11.054675</ele>
        <time>2024-08-18T08:43:27.000Z</time>
      </trkpt>
      <trkpt lat="39.578532" lon="-75.943619">
        <ele>12.590543</ele>
        <time>2024-08-18T08:43:48.000Z</time>
      </trkpt>
      <trkpt lat="39.578891" lon="-75.943552">
        <ele>12.871858</ele>
        <time>2024-08-18T08:43:52.000Z</time>
      </trkpt>
      <trkpt lat="39.580205" lon="-75.943382">
        <ele>13.663719</ele>
        <time>2024-08-18T08:44:07.000Z</time>
      </trkpt>
      <trkpt lat="39.581337" lon="-75.943221">
        <ele>14.108985</ele>
        <time>2024-08-18T08:44:20.000Z</time>
      </trkpt>
      <trkpt lat="39.583287" lon="-75.942957">
        <ele>13.353929</ele>
        <time>2024-08-18T08:44:42.000Z</time>
      </trkpt>
      <trkpt lat="39.584573" lon="-75.942765">
        <ele>11.27603</ele>
        <time>2024-08-18T08:44:56.000Z</time>
      </trkpt>
      <trkpt lat="39.585324" lon="-75.942661">
        <ele>10.707514</ele>
        <time>2024-08-18T08:45:04.000Z</time>
      </trkpt>
      <trkpt lat="39.586075" lon="-75.942564">
        <ele>10.1658</ele>
        <time>2024-08-18T08:45:12.000Z</time>
      </trkpt>
      <trkpt lat="39.5864" lon="-75.942535">
        <ele>10.003083</ele>
        <time>2024-08-18T08:45:16.000Z</time>
      </trkpt>
      <trkpt lat="39.588039" lon="-75.942338">
        <ele>13.579058</ele>
        <time>2024-08-18T08:45:34.000Z</time>
      </trkpt>
      <trkpt lat="39.58898" lon="-75.942146">
        <ele>14.020345</ele>
        <time>2024-08-18T08:45:45.000Z</time>
      </trkpt>
      <trkpt lat="39.589391" lon="-75.942104">
        <ele>14.103607</ele>
        <time>2024-08-18T08:45:50.000Z</time>
      </trkpt>
      <trkpt lat="39.589534" lon="-75.942084">
        <ele>14.132979</ele>
        <time>2024-08-18T08:45:52.000Z</time>
      </trkpt>
      <trkpt lat="39.590212" lon="-75.941986">
        <ele>13.660495</ele>
        <time>2024-08-18T08:46:00.000Z</time>
      </trkpt>
      <trkpt lat="39.590346" lon="-75.941971">
        <ele>13.398659</ele>
        <time>2024-08-18T08:46:01.000Z</time>
      </trkpt>
      <trkpt lat="39.590639" lon="-75.941926">
        <ele>12.772902</ele>
        <time>2024-08-18T08:46:04.000Z</time>
      </trkpt>
      <trkpt lat="39.59152" lon="-75.94156">
        <ele>10.84375</ele>
        <time>2024-08-18T08:46:14.000Z</time>
      </trkpt>
      <trkpt lat="39.592145" lon="-75.941416">
        <ele>9.529469</ele>
        <time>2024-08-18T08:46:21.000Z</time>
      </trkpt>
      <trkpt lat="39.592191" lon="-75.941423">
        <ele>9.436736</ele>
        <time>2024-08-18T08:46:22.000Z</time>
      </trkpt>
      <trkpt lat="39.592478" lon="-75.941367">
        <ele>8.837305</ele>
        <time>2024-08-18T08:46:25.000Z</time>
      </trkpt>
      <trkpt lat="39.592949" lon="-75.941309">
        <ele>7.863909</ele>
        <time>2024-08-18T08:46:30.000Z</time>
      </trkpt>
      <trkpt lat="39.593239" lon="-75.941228">
        <ele>7.244945</ele>
        <time>2024-08-18T08:46:33.000Z</time>
      </trkpt>
      <trkpt lat="39.593495" lon="-75.941084">
        <ele>6.67326</ele>
        <time>2024-08-18T08:46:36.000Z</time>
      </trkpt>
      <trkpt lat="39.593591" lon="-75.941021">
        <ele>6.480306</ele>
        <time>2024-08-18T08:46:37.000Z</time>
      </trkpt>
      <trkpt lat="39.593634" lon="-75.941502">
        <ele>5.861214</ele>
        <time>2024-08-18T08:46:41.000Z</time>
      </trkpt>
      <trkpt lat="39.593826" lon="-75.943919">
        <ele>3.53089618914</ele>
        <time>2024-08-18T08:47:02.000Z</time>
      </trkpt>
      <trkpt lat="39.593887" lon="-75.944857">
        <ele>2.62810731812</ele>
        <time>2024-08-18T08:47:10.000Z</time>
      </trkpt>
      <trkpt lat="39.593943" lon="-75.945707">
        <ele>1.80993960089</ele>
        <time>2024-08-18T08:47:17.000Z</time>
      </trkpt>
    </trkseg>
  </trk>
</gpx>

<!--
Performance optimized by W3 Total Cache. Learn more: https://www.boldgrid.com/w3-total-cache/?utm_source=w3tc&utm_medium=footer_comment&utm_campaign=free_plugin

Page Caching using Disk: Enhanced{w3tc_pagecache_reject_reason} 

Served from: www.aquabike.world @ 2026-05-10 15:00:09 by W3 Total Cache
-->